createdAt,value
2022-10-12T00:06:24.799Z,13.60
2022-10-12T00:13:07.434Z,13.30
2022-10-12T00:19:50.718Z,13.30
2022-10-12T00:26:33.461Z,13.40
2022-10-12T00:33:15.761Z,13.50
2022-10-12T00:39:58.094Z,13.50
2022-10-12T00:46:46.613Z,13.50
2022-10-12T00:53:37.157Z,13.20
2022-10-12T01:00:20.661Z,13.10
2022-10-12T01:07:03.033Z,13.10
2022-10-12T01:13:45.372Z,13.10
2022-10-12T01:20:33.745Z,13.10
2022-10-12T01:27:24.881Z,13.00
2022-10-12T01:34:12.037Z,12.80
2022-10-12T01:41:03.219Z,12.70
2022-10-12T01:47:52.452Z,12.60
2022-10-12T01:55:02.363Z,12.40
2022-10-12T02:02:16.274Z,12.20
2022-10-12T02:09:05.562Z,12.10
2022-10-12T02:15:49.088Z,12.10
2022-10-12T02:22:35.659Z,12.10
2022-10-12T02:29:24.100Z,11.90
2022-10-12T02:36:13.022Z,11.80
2022-10-12T02:43:10.553Z,11.90
2022-10-12T02:49:55.896Z,12.30
2022-10-12T02:56:45.988Z,12.10
2022-10-12T03:03:28.686Z,12.30
2022-10-12T03:10:11.631Z,12.40
2022-10-12T03:16:54.046Z,12.60
2022-10-12T03:23:36.844Z,12.70
2022-10-12T03:30:19.196Z,12.70
2022-10-12T03:37:01.503Z,12.70
2022-10-12T03:43:52.335Z,12.80
2022-10-12T03:50:35.456Z,12.80
2022-10-12T03:57:17.764Z,12.70
2022-10-12T04:04:00.230Z,12.80
2022-10-12T04:10:43.802Z,12.80
2022-10-12T04:17:26.334Z,12.80
2022-10-12T04:24:08.695Z,12.90
2022-10-12T04:30:50.998Z,12.70
2022-10-12T04:37:33.506Z,12.60
2022-10-12T04:44:19.473Z,12.50
2022-10-12T04:51:01.844Z,12.60
2022-10-12T04:57:44.387Z,12.60
2022-10-12T05:04:26.734Z,12.80
2022-10-12T05:11:09.278Z,12.80
2022-10-12T05:17:51.687Z,12.80
2022-10-12T05:24:34.082Z,13.00
2022-10-12T05:31:16.428Z,13.00
2022-10-12T05:37:58.880Z,13.00
2022-10-12T05:44:41.457Z,13.00
2022-10-12T05:51:28.579Z,13.00
2022-10-12T05:58:12.297Z,13.10
2022-10-12T06:04:54.669Z,13.10
2022-10-12T06:11:37.007Z,13.00
2022-10-12T06:18:19.439Z,13.10
2022-10-12T06:25:01.977Z,13.20
2022-10-12T06:31:48.937Z,13.20
2022-10-12T06:38:33.651Z,13.20
2022-10-12T06:45:16.955Z,13.60
2022-10-12T06:51:59.308Z,13.80
2022-10-12T06:58:42.001Z,14.00
2022-10-12T07:05:24.522Z,14.20
2022-10-12T07:12:06.999Z,14.20
2022-10-12T07:18:49.421Z,14.30
2022-10-12T07:25:32.305Z,14.70
2022-10-12T07:32:14.716Z,15.10
2022-10-12T07:38:57.038Z,15.50
2022-10-12T07:45:39.811Z,15.60
2022-10-12T07:52:27.332Z,15.40
2022-10-12T07:59:09.679Z,15.60
2022-10-12T08:05:52.018Z,16.00
2022-10-12T08:12:34.386Z,16.40
2022-10-12T08:19:16.955Z,16.80
2022-10-12T08:25:59.564Z,16.90
2022-10-12T08:32:42.159Z,17.00
2022-10-12T08:39:24.683Z,17.30
2022-10-12T08:46:07.426Z,17.60
2022-10-12T08:53:01.666Z,17.70
2022-10-12T08:59:45.668Z,18.20
2022-10-12T09:07:07.947Z,18.90
2022-10-12T09:14:01.916Z,19.60
2022-10-12T09:20:52.243Z,19.30
2022-10-12T09:27:35.220Z,19.20
2022-10-12T09:34:19.356Z,18.90
2022-10-12T09:41:02.184Z,19.00
2022-10-12T09:48:24.304Z,18.80
2022-10-12T09:55:23.500Z,18.20
2022-10-12T10:02:16.127Z,18.20
2022-10-12T10:08:58.445Z,18.30
2022-10-12T10:15:45.679Z,18.30
2022-10-12T10:22:29.641Z,18.20
2022-10-12T10:29:23.578Z,18.00
2022-10-12T10:36:23.135Z,17.90
2022-10-12T10:43:16.238Z,17.60
2022-10-12T10:50:01.693Z,17.80
2022-10-12T10:56:46.526Z,18.30
2022-10-12T11:03:55.457Z,18.50
2022-10-12T11:10:44.246Z,18.30
2022-10-12T11:17:34.683Z,18.90
2022-10-12T11:24:42.224Z,19.00
2022-10-12T11:31:28.544Z,19.50
2022-10-12T11:38:28.849Z,20.00
2022-10-12T11:45:33.382Z,20.20
2022-10-12T11:52:17.869Z,20.00
2022-10-12T11:59:05.923Z,19.30
2022-10-12T12:05:48.357Z,19.30
2022-10-12T12:12:30.688Z,19.50
2022-10-12T12:19:35.205Z,19.60
2022-10-12T12:26:20.114Z,19.60
2022-10-12T12:33:07.122Z,19.70
2022-10-12T12:39:58.043Z,19.80
2022-10-12T12:46:55.385Z,19.40
2022-10-12T12:53:42.437Z,19.40
2022-10-12T13:00:26.644Z,19.30
2022-10-12T13:07:31.386Z,19.20
2022-10-12T13:14:32.910Z,19.80
2022-10-12T13:21:23.571Z,19.60
2022-10-12T13:28:11.571Z,18.70
2022-10-12T13:34:56.816Z,18.20
2022-10-12T13:41:40.252Z,18.40
2022-10-12T13:48:46.303Z,18.30
2022-10-12T13:55:27.269Z,18.40
2022-10-12T14:02:23.628Z,18.50
2022-10-12T14:09:14.959Z,18.80
2022-10-12T14:15:59.726Z,18.90
2022-10-12T14:22:47.890Z,19.10
2022-10-12T14:29:39.397Z,18.90
2022-10-12T14:36:22.212Z,18.70
2022-10-12T14:43:20.988Z,18.60
2022-10-12T14:50:08.345Z,18.30
2022-10-12T14:56:50.723Z,18.40
2022-10-12T15:03:33.148Z,18.30
2022-10-12T15:10:17.367Z,18.40
2022-10-12T15:17:03.295Z,18.40
2022-10-12T15:23:46.416Z,18.30
2022-10-12T15:30:33.953Z,18.20
2022-10-12T15:37:18.230Z,18.10
2022-10-12T15:44:19.612Z,18.10
2022-10-12T15:51:03.785Z,18.00
2022-10-12T15:57:46.602Z,17.80
2022-10-12T16:04:28.971Z,17.80
2022-10-12T16:11:13.887Z,17.50
2022-10-12T16:17:56.997Z,17.30
2022-10-12T16:24:39.323Z,17.20
2022-10-12T16:31:21.662Z,16.90
2022-10-12T16:38:04.026Z,16.60
2022-10-12T16:44:46.448Z,16.20
2022-10-12T16:51:28.828Z,16.00
2022-10-12T16:58:16.881Z,15.90
2022-10-12T17:05:00.889Z,15.80
2022-10-12T17:12:13.343Z,15.60
2022-10-12T17:18:59.619Z,15.40
2022-10-12T17:25:44.459Z,15.20
2022-10-12T17:32:27.062Z,15.00
2022-10-12T17:39:09.518Z,14.90
2022-10-12T17:45:52.224Z,14.70
2022-10-12T17:52:39.301Z,14.70
2022-10-12T17:59:22.434Z,14.60
2022-10-12T18:06:06.737Z,14.40
2022-10-12T18:12:49.378Z,14.20
2022-10-12T18:19:32.455Z,14.00
2022-10-12T18:26:19.632Z,14.00
2022-10-12T18:33:01.990Z,13.90
2022-10-12T18:39:46.877Z,13.80
2022-10-12T18:46:31.842Z,13.60
2022-10-12T18:53:14.839Z,13.50
2022-10-12T18:59:57.160Z,13.50
2022-10-12T19:06:43.977Z,13.40
2022-10-12T19:13:26.377Z,13.30
2022-10-12T19:20:09.149Z,13.20
2022-10-12T19:26:51.687Z,13.10
2022-10-12T19:33:34.047Z,13.00
2022-10-12T19:40:16.414Z,12.90
2022-10-12T19:46:59.982Z,12.90
2022-10-12T19:53:48.151Z,12.80
2022-10-12T20:00:36.243Z,12.70
2022-10-12T20:07:18.811Z,12.70
2022-10-12T20:14:01.754Z,12.70
2022-10-12T20:20:44.119Z,12.60
2022-10-12T20:27:26.645Z,12.70
2022-10-12T20:34:09.110Z,12.70
2022-10-12T20:41:10.288Z,12.60
2022-10-12T20:47:52.841Z,12.60
2022-10-12T20:54:36.091Z,12.60
2022-10-12T21:01:18.532Z,12.70
2022-10-12T21:08:05.868Z,12.90
2022-10-12T21:14:49.984Z,13.00
2022-10-12T21:21:35.027Z,12.90
2022-10-12T21:28:17.734Z,12.80
2022-10-12T21:35:04.946Z,12.70
2022-10-12T21:41:48.952Z,12.60
2022-10-12T21:48:32.886Z,12.50
2022-10-12T21:55:15.718Z,12.40
2022-10-12T22:01:58.359Z,12.30
2022-10-12T22:08:40.927Z,12.20
2022-10-12T22:15:28.667Z,12.20
2022-10-12T22:22:12.171Z,11.90
2022-10-12T22:28:55.045Z,12.10
2022-10-12T22:35:37.376Z,12.00
2022-10-12T22:42:20.111Z,11.90
2022-10-12T22:49:03.400Z,12.00
2022-10-12T22:55:46.733Z,12.00
2022-10-12T23:02:29.661Z,11.90
2022-10-12T23:09:32.219Z,11.80
2022-10-12T23:16:24.386Z,11.60
2022-10-12T23:23:07.427Z,11.60
2022-10-12T23:29:50.204Z,11.50
2022-10-12T23:36:33.382Z,11.50
2022-10-12T23:43:15.742Z,11.60
2022-10-12T23:50:00.372Z,11.30
2022-10-12T23:56:42.738Z,11.20
